Time;durP1;ratioP1;P1;durP2;ratioP2;P2;SDS_P1;SDS_P2;PMS_P1;PMS_P2;Temp;Humidity;BMP_temperature;BMP_pressure;BME280_temperature;BME280_humidity;BME280_pressure;Samples;Min_cycle;Max_cycle;Signal;HPM_P1;HPM_P2
2023/10/19 00:04:32;;;;;;;28.88;15.20;;;;;;;4.07;67.65;99381.06;31504082;28;20060;-60
2023/10/19 00:19:39;;;;;;;25.35;13.60;;;;;;;4.00;67.49;99352.81;31502666;28;20033;-64
2023/10/19 00:34:39;;;;;;;20.77;12.90;;;;;;;3.90;67.94;99323.88;31500693;28;20036;-62
2023/10/19 00:49:40;;;;;;;25.30;12.43;;;;;;;3.84;68.23;99300.75;31499109;28;20055;-60
2023/10/19 01:04:42;;;;;;;23.55;12.70;;;;;;;3.76;68.45;99274.31;31498468;28;20036;-62
2023/10/19 01:19:43;;;;;;;23.67;13.75;;;;;;;3.59;68.55;99236.47;31497524;28;20039;-61
2023/10/19 01:34:43;;;;;;;23.38;12.65;;;;;;;3.49;69.32;99226.81;31496549;28;20036;-60
2023/10/19 01:49:48;;;;;;;25.95;13.32;;;;;;;3.54;69.47;99200.00;31493164;28;25893;-61
2023/10/19 02:04:51;;;;;;;23.13;13.35;;;;;;;3.52;69.87;99154.59;31492618;28;20067;-61
2023/10/19 02:19:51;;;;;;;25.85;12.80;;;;;;;3.45;69.82;99133.28;31491748;28;20057;-61
2023/10/19 02:34:51;;;;;;;25.83;13.20;;;;;;;3.49;70.36;99129.38;31491031;28;21163;-63
2023/10/19 02:49:55;;;;;;;26.95;14.55;;;;;;;3.58;70.54;99096.03;31489236;28;27212;-60
2023/10/19 03:04:56;;;;;;;26.37;15.63;;;;;;;3.61;70.33;99079.09;31502796;28;20041;-63
2023/10/19 03:19:56;;;;;;;25.90;15.10;;;;;;;3.60;70.84;99044.03;31507671;28;20484;-60
2023/10/19 03:34:58;;;;;;;29.75;16.83;;;;;;;3.56;70.86;99045.34;31504392;28;20021;-63
2023/10/19 03:50:06;;;;;;;24.85;16.35;;;;;;;3.68;71.21;99024.84;31503153;28;20422;-62
2023/10/19 04:05:09;;;;;;;27.85;15.35;;;;;;;3.92;71.30;98986.44;31503488;28;20044;-61
2023/10/19 04:35:22;;;;;;;31.85;17.95;;;;;;;4.17;71.17;98961.03;31496204;28;20048;-61
2023/10/19 04:50:23;;;;;;;32.55;17.05;;;;;;;4.29;71.17;98958.94;31493108;28;20060;-61
2023/10/19 05:05:23;;;;;;;29.42;18.33;;;;;;;4.40;71.24;98926.97;31492403;28;20390;-61
2023/10/19 05:20:23;;;;;;;30.42;17.30;;;;;;;4.52;71.22;98909.03;31490443;28;28534;-61
2023/10/19 05:35:26;;;;;;;30.65;17.85;;;;;;;4.66;71.18;98889.09;31493441;28;20033;-60
2023/10/19 05:50:28;;;;;;;27.60;16.63;;;;;;;4.84;71.02;98875.75;31489972;28;20167;-61
2023/10/19 06:05:30;;;;;;;32.47;17.75;;;;;;;5.12;70.61;98875.41;31487859;28;20108;-63
2023/10/19 06:20:30;;;;;;;33.92;15.50;;;;;;;5.32;70.42;98871.41;31486253;28;20578;-61
2023/10/19 06:35:31;;;;;;;30.08;15.70;;;;;;;5.50;70.35;98875.66;31496449;28;20029;-60
2023/10/19 06:50:32;;;;;;;33.97;17.02;;;;;;;5.67;70.52;98871.97;31504781;28;20115;-61
2023/10/19 07:05:32;;;;;;;26.52;17.30;;;;;;;5.78;69.80;98864.66;31508080;28;20041;-62
2023/10/19 07:20:32;;;;;;;27.77;16.35;;;;;;;5.92;70.43;98843.59;31507825;28;20108;-62
2023/10/19 07:35:42;;;;;;;35.20;18.10;;;;;;;6.07;70.30;98846.38;31501575;28;20116;-61
2023/10/19 07:50:43;;;;;;;27.38;16.80;;;;;;;6.61;70.46;98823.50;31496109;28;20048;-61
2023/10/19 08:05:43;;;;;;;31.97;17.07;;;;;;;6.87;70.17;98815.16;31498336;28;20098;-64
2023/10/19 08:20:49;;;;;;;29.70;17.92;;;;;;;6.99;70.19;98775.84;31496971;28;20307;-62
2023/10/19 08:35:49;;;;;;;25.80;16.23;;;;;;;7.01;69.79;98760.63;31495019;28;20135;-61
2023/10/19 08:50:50;;;;;;;25.95;17.42;;;;;;;7.15;70.01;98753.66;31496805;28;27711;-61
2023/10/19 09:05:50;;;;;;;25.75;17.60;;;;;;;7.47;70.65;98756.09;31495730;28;20036;-61
2023/10/19 09:20:52;;;;;;;30.05;17.75;;;;;;;7.66;70.86;98774.06;31493217;28;20040;-62
2023/10/19 09:35:53;;;;;;;27.35;18.30;;;;;;;7.79;70.78;98784.81;31490125;28;20036;-60
2023/10/19 09:50:55;;;;;;;33.50;19.83;;;;;;;7.97;70.69;98770.31;31488670;28;20540;-63
2023/10/19 10:05:57;;;;;;;34.25;20.85;;;;;;;8.03;70.71;98756.31;31489608;28;20041;-61
2023/10/19 10:21:10;;;;;;;31.45;18.05;;;;;;;8.17;70.90;98720.09;31487611;28;20097;-61
2023/10/19 10:36:12;;;;;;;32.55;19.60;;;;;;;8.33;71.46;98694.34;31484482;28;20116;-63
2023/10/19 10:51:23;;;;;;;24.90;16.58;;;;;;;8.33;71.42;98686.38;31485295;28;20099;-61
2023/10/19 11:06:23;;;;;;;28.10;17.23;;;;;;;8.12;72.19;98665.00;31484277;28;20120;-62
2023/10/19 11:21:24;;;;;;;32.85;18.23;;;;;;;7.89;72.21;98606.06;31492116;28;20039;-61
2023/10/19 11:36:25;;;;;;;29.05;19.60;;;;;;;7.76;73.46;98602.28;31502652;28;20036;-59
2023/10/19 11:51:26;;;;;;;31.17;18.40;;;;;;;8.05;73.69;98579.25;31502057;28;20096;-60
2023/10/19 12:06:27;;;;;;;26.77;17.67;;;;;;;8.04;74.14;98566.19;31500722;28;25013;-62
2023/10/19 12:21:28;;;;;;;30.33;18.98;;;;;;;7.88;74.28;98541.59;31498269;28;20029;-59
2023/10/19 12:51:29;;;;;;;32.33;18.67;;;;;;;8.52;74.87;98499.13;31494854;28;20061;-60
2023/10/19 13:06:31;;;;;;;29.38;18.00;;;;;;;8.75;74.86;98499.59;31493994;28;20608;-60
2023/10/19 13:21:32;;;;;;;30.27;18.63;;;;;;;8.76;75.23;98485.31;31492595;28;20029;-60
2023/10/19 13:36:33;;;;;;;30.30;19.10;;;;;;;8.82;75.11;98467.75;31491904;28;20044;-64
2023/10/19 13:51:33;;;;;;;28.80;19.00;;;;;;;9.00;75.60;98466.38;31487672;28;20049;-61
2023/10/19 14:06:33;;;;;;;32.85;20.27;;;;;;;9.26;75.57;98452.28;31489449;28;31022;-64
2023/10/19 14:21:37;;;;;;;34.28;19.08;;;;;;;9.40;75.95;98453.91;31488134;28;20935;-62
2023/10/19 14:36:37;;;;;;;34.20;19.40;;;;;;;9.20;75.44;98443.28;31487109;28;20048;-60
2023/10/19 14:51:38;;;;;;;34.15;21.52;;;;;;;9.07;75.69;98437.97;31489654;28;20497;-61
2023/10/19 15:06:38;;;;;;;34.70;21.50;;;;;;;9.02;75.84;98435.94;31507656;28;20306;-64
2023/10/19 15:21:38;;;;;;;36.75;21.92;;;;;;;9.01;76.26;98426.31;31505712;28;24579;-61
2023/10/19 15:36:39;;;;;;;35.20;21.33;;;;;;;8.89;76.69;98409.34;31503166;28;20437;-63
2023/10/19 15:51:39;;;;;;;39.72;22.85;;;;;;;8.84;77.12;98401.19;31498140;28;24946;-62
2023/10/19 16:06:39;;;;;;;41.45;23.20;;;;;;;8.76;76.96;98394.22;31498989;28;20036;-61
2023/10/19 16:21:40;;;;;;;41.30;23.95;;;;;;;8.74;77.44;98412.19;31497605;28;20056;-61
2023/10/19 16:36:42;;;;;;;43.13;24.23;;;;;;;8.83;77.76;98399.53;31497174;28;20033;-61
2023/10/19 16:51:43;;;;;;;45.45;24.42;;;;;;;8.87;77.90;98406.91;31495660;28;20057;-63
2023/10/19 17:06:43;;;;;;;54.60;26.77;;;;;;;8.88;78.06;98405.06;31492690;28;20039;-62
2023/10/19 17:21:43;;;;;;;48.58;23.75;;;;;;;8.85;78.08;98386.88;31492989;28;20146;-63
2023/10/19 17:36:45;;;;;;;52.38;26.23;;;;;;;8.83;78.43;98378.28;31491194;28;20037;-60
2023/10/19 17:51:45;;;;;;;57.08;29.02;;;;;;;8.76;78.13;98365.84;31488595;28;20057;-63
2023/10/19 18:06:48;;;;;;;66.13;29.10;;;;;;;8.50;78.50;98341.91;31487238;28;20482;-62
2023/10/19 18:21:52;;;;;;;65.85;29.90;;;;;;;8.58;79.05;98317.84;31489163;28;20075;-61
2023/10/19 18:36:53;;;;;;;70.25;30.00;;;;;;;8.65;79.40;98329.25;31505000;28;20037;-61
2023/10/19 18:51:53;;;;;;;72.80;30.95;;;;;;;8.71;79.44;98322.34;31508668;28;25915;-61
2023/10/19 19:06:55;;;;;;;84.43;34.15;;;;;;;8.75;79.44;98313.75;31507395;28;20056;-62
2023/10/19 19:21:55;;;;;;;75.97;32.90;;;;;;;8.77;79.62;98309.06;31505590;28;20029;-60
2023/10/19 19:36:56;;;;;;;72.60;34.05;;;;;;;8.81;79.56;98310.28;31503422;28;20035;-62
2023/10/19 19:51:56;;;;;;;68.85;30.10;;;;;;;8.77;79.75;98282.50;31501089;28;20053;-64
2023/10/19 20:06:56;;;;;;;71.30;30.85;;;;;;;8.75;79.75;98281.91;31501614;28;20049;-60
2023/10/19 20:21:57;;;;;;;72.50;31.23;;;;;;;8.70;79.91;98252.50;31498469;28;20033;-62
2023/10/19 20:36:57;;;;;;;74.20;31.52;;;;;;;8.67;80.15;98236.97;31499359;28;22863;-61
2023/10/19 20:51:57;;;;;;;82.03;35.28;;;;;;;8.61;80.34;98243.09;31497963;28;20049;-61
2023/10/19 21:06:58;;;;;;;66.65;31.27;;;;;;;8.54;80.12;98224.53;31496400;28;30223;-61
2023/10/19 21:21:58;;;;;;;75.82;32.10;;;;;;;8.52;80.22;98217.81;31495658;28;20029;-62
2023/10/19 21:36:59;;;;;;;65.22;32.42;;;;;;;8.42;80.30;98234.94;31494937;28;20060;-62
2023/10/19 21:51:59;;;;;;;65.85;30.30;;;;;;;8.36;80.50;98213.69;31493477;28;20049;-60
2023/10/19 22:07:01;;;;;;;69.45;31.80;;;;;;;8.30;80.78;98210.03;31492322;28;20497;-60
2023/10/19 22:22:01;;;;;;;67.95;32.63;;;;;;;8.33;80.75;98225.53;31492636;28;20037;-64
2023/10/19 22:37:03;;;;;;;69.07;32.05;;;;;;;8.35;81.20;98204.94;31491145;28;20052;-61
2023/10/19 22:52:04;;;;;;;65.80;30.63;;;;;;;8.38;81.27;98204.53;31489644;28;20052;-63
2023/10/19 23:07:04;;;;;;;56.42;28.55;;;;;;;8.28;81.21;98153.69;31489183;28;20036;-65
2023/10/19 23:22:05;;;;;;;57.75;28.63;;;;;;;8.09;81.02;98124.34;31505143;28;20029;-61
2023/10/19 23:37:06;;;;;;;56.22;27.42;;;;;;;7.99;80.98;98145.13;31508552;28;20045;-63
2023/10/19 23:52:06;;;;;;;65.88;29.13;;;;;;;7.94;81.56;98158.19;31505819;28;20390;-60
